Time;durP1;ratioP1;P1;durP2;ratioP2;P2;SDS_P1;SDS_P2;PMS_P1;PMS_P2;Temp;Humidity;BMP_temperature;BMP_pressure;BME280_temperature;BME280_humidity;BME280_pressure;Samples;Min_cycle;Max_cycle;Signal;HPM_P1;HPM_P2
2023/02/07 00:01:31;;;;;;;40.93;28.07;;;0.30;99.90;;;;;;5058035;28;20498;-71
2023/02/07 00:03:58;;;;;;;36.07;26.97;;;0.30;99.90;;;;;;5059896;28;20785;-70
2023/02/07 00:06:28;;;;;;;35.90;25.63;;;0.40;99.90;;;;;;5050795;28;20530;-71
2023/02/07 00:08:56;;;;;;;36.67;27.53;;;0.40;99.90;;;;;;5054601;28;20465;-70
2023/02/07 00:11:23;;;;;;;36.13;26.63;;;0.40;99.90;;;;;;5056936;28;20470;-72
2023/02/07 00:13:54;;;;;;;42.40;23.53;;;0.30;99.90;;;;;;5058695;28;20473;-70
2023/02/07 00:16:21;;;;;;;38.90;22.60;;;0.40;99.90;;;;;;5052578;28;20471;-70
2023/02/07 00:18:51;;;;;;;38.50;21.40;;;0.50;99.90;;;;;;5060446;28;20458;-72
2023/02/07 00:21:20;;;;;;;33.70;21.43;;;0.50;99.90;;;;;;5055450;28;21087;-72
2023/02/07 00:23:48;;;;;;;39.50;22.40;;;0.50;99.90;;;;;;5063125;28;20497;-71
2023/02/07 00:26:16;;;;;;;28.90;21.43;;;0.60;99.90;;;;;;5060169;28;20462;-72
2023/02/07 00:28:43;;;;;;;27.10;20.07;;;0.50;99.90;;;;;;5058361;28;20466;-73
2023/02/07 00:31:12;;;;;;;30.13;21.10;;;0.60;99.90;;;;;;5055872;28;20467;-72
2023/02/07 00:33:40;;;;;;;31.60;21.03;;;0.50;99.90;;;;;;5058966;28;20456;-71
2023/02/07 00:36:11;;;;;;;31.57;20.27;;;0.40;99.90;;;;;;5057270;28;20466;-72
2023/02/07 00:38:39;;;;;;;33.83;21.23;;;0.40;99.90;;;;;;5056809;28;20470;-72
2023/02/07 00:41:08;;;;;;;31.70;20.60;;;0.50;99.90;;;;;;5056437;28;20529;-71
2023/02/07 00:43:35;;;;;;;30.93;20.77;;;0.60;99.90;;;;;;5052163;28;20920;-72
2023/02/07 00:46:04;;;;;;;27.30;20.97;;;0.70;99.90;;;;;;5058670;28;20467;-73
2023/02/07 00:48:31;;;;;;;29.13;20.23;;;0.60;99.90;;;;;;5062806;28;20525;-74
2023/02/07 00:50:59;;;;;;;27.87;19.37;;;0.60;99.90;;;;;;5057091;28;20473;-73
2023/02/07 00:53:27;;;;;;;31.53;20.67;;;0.60;99.90;;;;;;5056761;28;20463;-74
2023/02/07 00:55:55;;;;;;;22.87;19.50;;;0.60;99.90;;;;;;5053908;28;20469;-72
2023/02/07 00:58:24;;;;;;;39.13;19.97;;;0.60;99.90;;;;;;5049503;28;20456;-73
2023/02/07 01:00:51;;;;;;;25.57;18.83;;;0.50;99.90;;;;;;5061976;28;20824;-73
2023/02/07 01:03:18;;;;;;;26.00;18.20;;;0.40;99.90;;;;;;5058115;28;20467;-71
2023/02/07 01:05:45;;;;;;;25.40;19.17;;;0.30;99.90;;;;;;5058541;28;20462;-73
2023/02/07 01:08:12;;;;;;;25.00;19.53;;;0.30;99.90;;;;;;5056900;28;20455;-70
2023/02/07 01:10:40;;;;;;;22.73;20.27;;;0.30;99.90;;;;;;5047791;28;20469;-74
2023/02/07 01:13:08;;;;;;;30.63;19.20;;;0.30;99.90;;;;;;5049709;28;20463;-74
2023/02/07 01:15:38;;;;;;;29.20;18.80;;;0.30;99.90;;;;;;5059852;28;20466;-71
2023/02/07 01:18:07;;;;;;;35.03;20.37;;;0.20;99.90;;;;;;5059853;28;20470;-73
2023/02/07 01:20:34;;;;;;;27.67;17.93;;;0.20;99.90;;;;;;5060060;28;20478;-72
2023/02/07 01:23:01;;;;;;;27.60;18.40;;;0.20;99.90;;;;;;5054429;28;20469;-71
2023/02/07 01:25:28;;;;;;;21.87;19.50;;;0.10;99.90;;;;;;5057278;28;20871;-74
2023/02/07 01:27:56;;;;;;;30.60;20.23;;;0.10;99.90;;;;;;5059172;28;20471;-72
2023/02/07 01:30:23;;;;;;;26.00;19.47;;;0.10;99.90;;;;;;5055703;28;20471;-71
2023/02/07 01:32:51;;;;;;;24.77;19.50;;;0.20;99.90;;;;;;5056613;28;20463;-72
2023/02/07 01:35:18;;;;;;;20.57;18.40;;;0.20;99.90;;;;;;5058327;28;20455;-74
2023/02/07 01:37:45;;;;;;;26.07;19.97;;;0.10;99.90;;;;;;5053695;28;20462;-74
2023/02/07 01:40:13;;;;;;;22.30;18.30;;;0.10;99.90;;;;;;5054814;28;20469;-73
2023/02/07 01:42:39;;;;;;;39.03;18.57;;;0.10;99.90;;;;;;5056286;28;20594;-71
2023/02/07 01:45:21;;;;;;;23.40;18.03;;;0.00;99.90;;;;;;5058840;28;20538;-72
2023/02/07 01:47:48;;;;;;;26.70;18.43;;;0.00;99.90;;;;;;5051166;28;20466;-73
2023/02/07 01:50:16;;;;;;;19.13;17.20;;;0.00;99.90;;;;;;5057391;28;20485;-71
2023/02/07 01:52:43;;;;;;;24.60;19.03;;;-0.10;99.90;;;;;;5053331;28;20471;-73
2023/02/07 01:55:14;;;;;;;24.93;20.27;;;-0.10;99.90;;;;;;5056498;28;20462;-72
2023/02/07 01:57:41;;;;;;;26.17;19.07;;;0.00;99.90;;;;;;5058785;28;20486;-71
2023/02/07 02:00:10;;;;;;;26.50;18.57;;;0.00;99.90;;;;;;5053956;28;20487;-73
2023/02/07 02:02:39;;;;;;;23.70;18.73;;;-0.10;99.90;;;;;;5057543;28;20493;-72
2023/02/07 02:05:07;;;;;;;20.33;18.23;;;-0.10;99.90;;;;;;5043863;28;20978;-73
2023/02/07 02:07:37;;;;;;;24.23;17.93;;;-0.10;99.90;;;;;;5051899;28;20471;-73
2023/02/07 02:10:10;;;;;;;22.63;18.93;;;-0.10;99.90;;;;;;5054318;28;20475;-71
2023/02/07 02:13:10;;;;;;;19.50;17.47;;;-0.20;99.90;;;;;;5064475;28;20554;-71
2023/02/07 02:15:43;;;;;;;24.33;17.20;;;-0.20;99.90;;;;;;5053747;28;21268;-71
2023/02/07 02:18:38;;;;;;;20.50;18.30;;;-0.30;99.90;;;;;;5057505;28;20988;-71
2023/02/07 02:21:38;;;;;;;25.23;18.03;;;-0.40;99.90;;;;;;5031106;28;20479;-73
2023/02/07 02:24:34;;;;;;;24.93;18.53;;;-0.40;99.90;;;;;;5054313;28;20508;-71
2023/02/07 02:27:09;;;;;;;26.43;18.23;;;-0.40;99.90;;;;;;5009371;28;20463;-73
2023/02/07 02:29:58;;;;;;;33.47;19.13;;;-0.40;99.90;;;;;;5059071;28;20457;-71
2023/02/07 02:33:02;;;;;;;32.03;20.27;;;-0.40;99.90;;;;;;5057623;28;20471;-72
2023/02/07 02:35:34;;;;;;;24.30;18.60;;;-0.40;99.90;;;;;;5054038;28;21063;-73
2023/02/07 02:38:13;;;;;;;23.73;19.77;;;-0.40;99.90;;;;;;5054203;28;20973;-72
2023/02/07 02:40:49;;;;;;;20.80;18.67;;;-0.50;99.90;;;;;;5048052;28;20475;-73
2023/02/07 02:43:24;;;;;;;24.07;19.30;;;-0.50;99.90;;;;;;5053719;28;20478;-73
2023/02/07 02:45:55;;;;;;;24.80;19.60;;;-0.50;99.90;;;;;;5049385;28;20494;-74
2023/02/07 02:48:25;;;;;;;20.63;18.60;;;-0.50;99.90;;;;;;5061709;28;20462;-72
2023/02/07 02:50:54;;;;;;;22.70;18.90;;;-0.50;99.90;;;;;;5057715;28;20467;-74
2023/02/07 02:53:22;;;;;;;20.70;18.80;;;-0.50;99.90;;;;;;5054439;28;20462;-73
2023/02/07 02:56:23;;;;;;;26.10;18.73;;;-0.50;99.90;;;;;;5055779;28;20475;-73
2023/02/07 02:59:04;;;;;;;22.93;18.23;;;-0.50;99.90;;;;;;5054418;28;20457;-73
2023/02/07 03:01:39;;;;;;;19.90;17.80;;;-0.50;99.90;;;;;;5056764;28;20493;-72
2023/02/07 03:04:27;;;;;;;21.10;18.90;;;-0.60;99.90;;;;;;5051772;28;20951;-71
2023/02/07 03:07:05;;;;;;;22.73;18.77;;;-0.60;99.90;;;;;;5059391;28;20470;-72
2023/02/07 03:09:40;;;;;;;20.87;17.50;;;-0.70;99.90;;;;;;5052549;28;20489;-72
2023/02/07 03:12:15;;;;;;;20.23;17.97;;;-0.70;99.90;;;;;;5057529;28;20465;-72
2023/02/07 03:14:52;;;;;;;20.67;18.60;;;-0.70;99.90;;;;;;5053252;28;20467;-72
2023/02/07 03:17:25;;;;;;;20.80;17.50;;;-0.80;99.90;;;;;;5043485;28;20565;-71
2023/02/07 03:20:00;;;;;;;26.03;18.53;;;-0.80;99.90;;;;;;5054969;28;20471;-73
2023/02/07 03:22:29;;;;;;;22.73;18.10;;;-0.80;99.90;;;;;;5059485;28;20497;-72
2023/02/07 03:24:59;;;;;;;21.93;18.77;;;-0.90;99.90;;;;;;5054799;28;20463;-73
2023/02/07 03:27:29;;;;;;;24.10;19.07;;;-0.90;99.90;;;;;;5051992;28;20465;-72
2023/02/07 03:29:59;;;;;;;21.17;19.07;;;-0.90;99.90;;;;;;5054644;28;20836;-70
2023/02/07 03:32:31;;;;;;;24.63;16.60;;;-0.90;99.90;;;;;;5053672;28;20473;-73
2023/02/07 03:35:05;;;;;;;20.17;17.60;;;-1.00;99.90;;;;;;5054403;28;20999;-72
2023/02/07 03:37:36;;;;;;;25.53;17.87;;;-0.90;99.90;;;;;;5050038;28;20466;-73
2023/02/07 03:40:04;;;;;;;29.20;19.43;;;-0.90;99.90;;;;;;5056495;28;20477;-73
2023/02/07 03:42:34;;;;;;;21.03;18.20;;;-0.90;99.90;;;;;;5054479;28;20497;-73
2023/02/07 03:45:05;;;;;;;29.40;19.57;;;-0.90;99.90;;;;;;5045777;28;20462;-73
2023/02/07 03:47:32;;;;;;;24.63;18.47;;;-1.00;99.90;;;;;;5054852;28;20826;-73
2023/02/07 03:50:00;;;;;;;20.03;18.00;;;-0.90;99.90;;;;;;5052229;28;20577;-73
2023/02/07 03:52:27;;;;;;;26.80;17.63;;;-1.10;99.90;;;;;;5041484;28;20461;-73
2023/02/07 03:54:54;;;;;;;22.97;17.93;;;-1.20;99.90;;;;;;5062478;28;20557;-73
2023/02/07 03:57:20;;;;;;;23.70;18.00;;;-1.30;99.90;;;;;;5055241;28;20795;-72
2023/02/07 03:59:47;;;;;;;33.53;17.70;;;-1.20;99.90;;;;;;5054010;28;20487;-73
2023/02/07 04:02:14;;;;;;;21.50;17.60;;;-1.20;99.90;;;;;;5052785;28;20496;-73
2023/02/07 04:04:41;;;;;;;26.70;20.73;;;-1.20;99.90;;;;;;5055857;28;20470;-72
2023/02/07 04:07:10;;;;;;;28.30;19.03;;;-1.20;99.90;;;;;;5052958;28;20461;-73
2023/02/07 04:09:37;;;;;;;21.87;18.23;;;-1.20;99.90;;;;;;5050945;28;20459;-73
2023/02/07 04:12:04;;;;;;;22.77;18.03;;;-1.10;99.90;;;;;;5055384;28;20470;-72
2023/02/07 04:14:32;;;;;;;20.37;18.37;;;-1.10;99.90;;;;;;5057694;28;20831;-72
2023/02/07 04:17:00;;;;;;;34.43;19.47;;;-1.10;99.90;;;;;;5058207;28;20479;-73
2023/02/07 04:19:26;;;;;;;20.17;17.97;;;-1.10;99.90;;;;;;5061010;28;20532;-71
2023/02/07 04:21:53;;;;;;;24.97;19.67;;;-1.20;99.90;;;;;;5059037;28;20481;-71
2023/02/07 04:24:22;;;;;;;21.20;18.30;;;-1.20;99.90;;;;;;5054019;28;20458;-71
2023/02/07 04:26:48;;;;;;;28.20;20.13;;;-1.20;99.90;;;;;;5057831;28;20465;-73
2023/02/07 04:29:15;;;;;;;22.73;20.10;;;-1.20;99.90;;;;;;5047933;28;20460;-72
2023/02/07 04:31:42;;;;;;;27.10;18.87;;;-1.20;99.90;;;;;;5058770;28;20976;-73
2023/02/07 04:34:11;;;;;;;26.40;21.37;;;-1.20;99.90;;;;;;5052144;28;20472;-72
2023/02/07 04:36:38;;;;;;;26.63;18.87;;;-1.20;99.90;;;;;;5052741;28;20482;-72
2023/02/07 04:39:05;;;;;;;28.13;18.87;;;-1.20;99.90;;;;;;5060195;28;20881;-73
2023/02/07 04:41:34;;;;;;;26.07;20.17;;;-1.20;99.90;;;;;;5049785;28;20487;-73
2023/02/07 04:44:01;;;;;;;21.23;18.67;;;-1.20;99.90;;;;;;5052151;28;20951;-73
2023/02/07 04:46:28;;;;;;;22.13;18.60;;;-1.20;99.90;;;;;;5051593;28;20480;-71
2023/02/07 04:48:55;;;;;;;29.63;20.50;;;-1.30;99.90;;;;;;5055179;28;20981;-71
2023/02/07 04:51:22;;;;;;;28.40;19.93;;;-1.30;99.90;;;;;;5053437;28;20476;-73
2023/02/07 04:53:49;;;;;;;35.10;21.50;;;-1.20;99.90;;;;;;5055599;28;20462;-72
2023/02/07 04:56:16;;;;;;;36.47;20.27;;;-1.20;99.90;;;;;;5054235;28;20807;-72
2023/02/07 04:58:44;;;;;;;24.83;19.60;;;-1.30;99.90;;;;;;5060784;28;20459;-71
2023/02/07 05:01:10;;;;;;;35.03;20.67;;;-1.30;99.90;;;;;;5057149;28;20479;-73
2023/02/07 05:03:37;;;;;;;26.17;19.33;;;-1.40;99.90;;;;;;5053988;28;20855;-75
2023/02/07 05:06:04;;;;;;;25.60;20.30;;;-1.40;99.90;;;;;;5057632;28;20467;-73
2023/02/07 05:08:32;;;;;;;25.63;20.13;;;-1.30;99.90;;;;;;5056220;28;20595;-73
2023/02/07 05:11:00;;;;;;;23.63;19.83;;;-1.30;99.90;;;;;;5055834;28;20471;-73
2023/02/07 05:13:27;;;;;;;27.00;19.90;;;-1.30;99.90;;;;;;5061423;28;20458;-73
2023/02/07 05:15:56;;;;;;;26.63;19.37;;;-1.30;99.90;;;;;;5052632;28;20471;-74
2023/02/07 05:18:23;;;;;;;22.13;18.33;;;-1.30;99.90;;;;;;5053800;28;20461;-73
2023/02/07 05:20:52;;;;;;;30.07;21.63;;;-1.30;99.90;;;;;;5051782;28;20957;-74
2023/02/07 05:23:20;;;;;;;24.60;18.70;;;-1.40;99.90;;;;;;5053324;28;20501;-72
2023/02/07 05:25:48;;;;;;;22.57;19.47;;;-1.50;99.90;;;;;;5060022;28;20467;-74
2023/02/07 05:28:15;;;;;;;22.93;19.60;;;-1.60;99.90;;;;;;5052955;28;20457;-72
2023/02/07 05:30:42;;;;;;;20.80;17.90;;;-1.60;99.90;;;;;;5054760;28;20493;-73
2023/02/07 05:33:09;;;;;;;23.93;18.60;;;-1.60;99.90;;;;;;5058177;28;20801;-71
2023/02/07 05:35:38;;;;;;;21.30;19.10;;;-1.70;99.90;;;;;;5055899;28;20464;-73
2023/02/07 05:38:06;;;;;;;28.63;19.63;;;-1.70;99.90;;;;;;5056146;28;20458;-72
2023/02/07 05:40:33;;;;;;;29.30;20.10;;;-1.80;99.90;;;;;;5051287;28;20459;-71
2023/02/07 05:43:00;;;;;;;22.67;18.73;;;-1.80;99.90;;;;;;5050852;28;20502;-72
2023/02/07 05:45:27;;;;;;;23.00;20.30;;;-1.70;99.90;;;;;;5054689;28;20462;-74
2023/02/07 05:47:54;;;;;;;21.80;19.60;;;-1.70;99.90;;;;;;5044772;28;20635;-72
2023/02/07 05:50:23;;;;;;;24.33;19.53;;;-1.60;99.90;;;;;;5043486;28;20928;-74
2023/02/07 05:52:50;;;;;;;24.90;20.27;;;-1.60;99.90;;;;;;5055221;28;20561;-73
2023/02/07 05:55:17;;;;;;;27.23;20.43;;;-1.60;99.90;;;;;;5051634;28;21223;-71
2023/02/07 05:57:44;;;;;;;21.97;19.77;;;-1.60;99.90;;;;;;5061720;28;20455;-72
2023/02/07 06:00:14;;;;;;;24.50;19.53;;;-1.70;99.90;;;;;;5052274;28;20480;-73
2023/02/07 06:02:41;;;;;;;33.13;19.73;;;-1.60;99.90;;;;;;5049588;28;20497;-73
2023/02/07 06:05:10;;;;;;;24.10;19.47;;;-1.50;99.90;;;;;;5051417;28;20455;-72
2023/02/07 06:07:38;;;;;;;19.67;17.77;;;-1.60;99.90;;;;;;5059023;28;20459;-72
2023/02/07 06:10:06;;;;;;;30.37;19.33;;;-1.60;99.90;;;;;;5054976;28;21214;-72
2023/02/07 06:12:33;;;;;;;26.97;19.50;;;-1.60;99.90;;;;;;5053624;28;21012;-73
2023/02/07 06:15:00;;;;;;;32.03;20.17;;;-1.60;99.90;;;;;;5055876;28;20474;-71
2023/02/07 06:17:27;;;;;;;33.90;20.00;;;-1.70;99.90;;;;;;5051976;28;20460;-71
2023/02/07 06:19:54;;;;;;;21.97;18.33;;;-1.70;99.90;;;;;;5055439;28;20476;-73
2023/02/07 06:22:21;;;;;;;19.97;17.87;;;-1.80;99.90;;;;;;5055397;28;20491;-73
2023/02/07 06:24:49;;;;;;;22.23;18.60;;;-1.80;99.90;;;;;;5060382;28;20491;-71
2023/02/07 06:27:16;;;;;;;23.23;17.20;;;-1.80;99.90;;;;;;5047690;28;20458;-72
2023/02/07 06:29:44;;;;;;;24.67;18.40;;;-1.80;99.90;;;;;;5055562;28;20459;-71
2023/02/07 06:32:11;;;;;;;32.07;19.17;;;-1.80;99.90;;;;;;5055014;28;20799;-71
2023/02/07 06:34:38;;;;;;;21.70;19.40;;;-1.90;99.90;;;;;;5054759;28;20466;-74
2023/02/07 06:37:06;;;;;;;35.87;20.90;;;-1.90;99.90;;;;;;5049140;28;22586;-73
2023/02/07 06:39:33;;;;;;;25.20;19.27;;;-1.80;99.90;;;;;;5054052;28;20547;-72
2023/02/07 06:42:01;;;;;;;27.43;19.53;;;-1.80;99.90;;;;;;5062025;28;20503;-70
2023/02/07 06:44:28;;;;;;;20.80;17.80;;;-1.90;99.90;;;;;;5052153;28;20473;-74
2023/02/07 06:46:54;;;;;;;20.37;18.40;;;-1.90;99.90;;;;;;5049546;28;20467;-72
2023/02/07 06:49:21;;;;;;;21.90;19.03;;;-2.00;99.90;;;;;;5049085;28;20462;-72
2023/02/07 06:51:48;;;;;;;25.93;18.70;;;-2.00;99.90;;;;;;5051926;28;20732;-72
2023/02/07 06:54:16;;;;;;;22.20;18.53;;;-2.00;99.90;;;;;;5065119;28;20462;-74
2023/02/07 06:56:42;;;;;;;25.70;23.00;;;-2.00;99.90;;;;;;5052346;28;20487;-72
2023/02/07 06:59:10;;;;;;;21.83;19.50;;;-2.10;99.90;;;;;;5052025;28;20475;-72
2023/02/07 07:01:37;;;;;;;20.67;18.47;;;-2.10;99.90;;;;;;5056773;28;20447;-71
2023/02/07 07:04:04;;;;;;;23.63;19.33;;;-2.10;99.90;;;;;;5057175;28;20492;-71
2023/02/07 07:06:32;;;;;;;22.60;19.30;;;-2.10;99.90;;;;;;5059999;28;20462;-71
2023/02/07 07:08:59;;;;;;;26.47;18.70;;;-2.10;99.90;;;;;;5053126;28;20812;-70
2023/02/07 07:11:26;;;;;;;20.90;18.70;;;-2.10;99.90;;;;;;5053019;28;20826;-71
2023/02/07 07:13:53;;;;;;;24.13;19.40;;;-2.20;99.90;;;;;;5056172;28;20561;-71
2023/02/07 07:16:22;;;;;;;23.97;19.20;;;-2.10;99.90;;;;;;5054051;28;20475;-73
2023/02/07 07:18:48;;;;;;;20.43;18.43;;;-2.10;99.90;;;;;;5046851;28;20632;-72
2023/02/07 07:21:15;;;;;;;22.57;19.50;;;-2.00;99.90;;;;;;5054303;28;20817;-73
2023/02/07 07:23:42;;;;;;;19.57;17.47;;;-2.10;99.90;;;;;;5056454;28;21048;-71
2023/02/07 07:26:09;;;;;;;21.77;19.50;;;-2.20;99.90;;;;;;5054949;28;20456;-71
2023/02/07 07:28:36;;;;;;;21.00;18.77;;;-2.30;99.90;;;;;;5053307;28;20467;-72
2023/02/07 07:31:05;;;;;;;22.03;18.83;;;-2.30;99.90;;;;;;5060604;28;20471;-71
2023/02/07 07:33:33;;;;;;;21.90;18.97;;;-2.20;99.90;;;;;;5049985;28;21009;-71
2023/02/07 07:36:01;;;;;;;23.47;21.00;;;-2.10;99.90;;;;;;5050409;28;20473;-71
2023/02/07 07:38:29;;;;;;;23.33;20.83;;;-2.10;99.90;;;;;;5054771;28;21001;-73
2023/02/07 07:40:56;;;;;;;26.50;22.30;;;-2.00;99.90;;;;;;5059030;28;20479;-70
2023/02/07 07:43:23;;;;;;;27.13;23.60;;;-1.80;99.90;;;;;;5049027;28;20487;-70
2023/02/07 07:45:54;;;;;;;26.37;23.73;;;-1.80;99.90;;;;;;5062157;28;20653;-71
2023/02/07 07:48:21;;;;;;;35.57;28.10;;;-1.70;99.90;;;;;;5059782;28;20538;-73
2023/02/07 07:50:51;;;;;;;32.30;27.77;;;-1.80;99.90;;;;;;5054384;28;20462;-70
2023/02/07 07:53:19;;;;;;;27.70;24.00;;;-1.80;99.90;;;;;;5053750;28;20456;-72
2023/02/07 07:55:49;;;;;;;24.47;21.80;;;-1.80;99.90;;;;;;5055206;28;20466;-71
2023/02/07 07:58:16;;;;;;;22.50;19.90;;;-1.80;99.90;;;;;;5061029;28;21029;-73
2023/02/07 08:00:43;;;;;;;21.23;19.17;;;-1.90;99.90;;;;;;5057267;28;20475;-71
2023/02/07 08:03:11;;;;;;;22.90;20.40;;;-1.90;99.90;;;;;;5058579;28;20474;-71
2023/02/07 08:05:38;;;;;;;21.20;19.20;;;-1.80;99.90;;;;;;5055235;28;20470;-72
2023/02/07 08:08:07;;;;;;;28.70;20.53;;;-1.80;99.90;;;;;;5051969;28;20462;-71
2023/02/07 08:10:34;;;;;;;23.83;21.40;;;-1.80;99.90;;;;;;5056445;28;20462;-72
2023/02/07 08:13:01;;;;;;;22.33;20.13;;;-1.80;99.90;;;;;;5053410;28;20473;-71
2023/02/07 08:15:28;;;;;;;23.23;20.73;;;-1.80;99.90;;;;;;5057747;28;20466;-71
2023/02/07 08:17:55;;;;;;;22.30;20.20;;;-1.70;99.90;;;;;;5054668;28;20522;-70
2023/02/07 08:20:22;;;;;;;21.90;19.60;;;-1.70;99.90;;;;;;5058325;28;20462;-72
2023/02/07 08:22:49;;;;;;;23.53;20.97;;;-1.60;99.90;;;;;;5060277;28;20479;-70
2023/02/07 08:25:18;;;;;;;25.30;18.97;;;-1.40;99.90;;;;;;5054940;28;20471;-70
2023/02/07 08:27:45;;;;;;;25.17;19.00;;;-1.40;99.90;;;;;;5059781;28;20699;-72
2023/02/07 08:30:14;;;;;;;20.77;18.60;;;-1.30;99.90;;;;;;5050916;28;20463;-72
2023/02/07 08:32:41;;;;;;;20.40;18.30;;;-1.30;99.90;;;;;;5056787;28;20553;-70
2023/02/07 08:35:09;;;;;;;23.43;19.53;;;-1.30;99.90;;;;;;5059034;28;20601;-70
2023/02/07 08:37:36;;;;;;;20.70;18.60;;;-1.20;99.90;;;;;;5051185;28;20473;-71
2023/02/07 08:40:04;;;;;;;26.77;20.00;;;-1.10;99.90;;;;;;5059694;28;20473;-73
2023/02/07 08:42:33;;;;;;;20.80;18.70;;;-1.00;99.90;;;;;;5062553;28;21071;-70
2023/02/07 08:44:59;;;;;;;21.00;18.93;;;-0.90;99.90;;;;;;5052511;28;20560;-73
2023/02/07 08:47:27;;;;;;;21.93;19.93;;;-0.90;99.90;;;;;;5053987;28;20472;-72
2023/02/07 08:49:54;;;;;;;23.40;20.40;;;-0.80;99.90;;;;;;5060390;28;20554;-71
2023/02/07 08:52:20;;;;;;;22.13;19.40;;;-0.80;99.90;;;;;;5053722;28;20462;-71
2023/02/07 08:54:47;;;;;;;28.20;20.50;;;-0.70;99.90;;;;;;5060404;28;20474;-72
2023/02/07 08:57:14;;;;;;;23.90;21.50;;;-0.60;99.90;;;;;;5057673;28;20472;-69
2023/02/07 08:59:43;;;;;;;23.13;20.93;;;-0.50;99.90;;;;;;5060438;28;20486;-70
2023/02/07 09:02:12;;;;;;;20.93;18.87;;;-0.40;99.90;;;;;;5056394;28;20850;-70
2023/02/07 09:04:41;;;;;;;22.27;20.07;;;-0.30;99.90;;;;;;5039863;28;20490;-73
2023/02/07 09:07:08;;;;;;;23.33;21.03;;;-0.20;99.90;;;;;;5039570;28;20501;-73
2023/02/07 09:09:35;;;;;;;22.60;20.50;;;-0.10;99.90;;;;;;5044399;28;20466;-70
2023/02/07 09:12:02;;;;;;;22.83;20.60;;;0.00;99.90;;;;;;5055227;28;20482;-72
2023/02/07 09:14:28;;;;;;;26.10;21.03;;;0.10;99.90;;;;;;5046158;28;20464;-70
2023/02/07 09:16:57;;;;;;;25.37;20.90;;;0.10;99.90;;;;;;5058018;28;20464;-71
2023/02/07 09:19:23;;;;;;;22.27;19.97;;;0.20;99.90;;;;;;5054635;28;20477;-70
2023/02/07 09:21:50;;;;;;;24.77;22.30;;;0.20;99.90;;;;;;5053471;28;20475;-73
2023/02/07 09:24:17;;;;;;;23.73;21.53;;;0.30;99.90;;;;;;5050823;28;20623;-70
2023/02/07 09:26:44;;;;;;;23.37;21.17;;;0.40;99.90;;;;;;5054054;28;20459;-71
2023/02/07 09:29:12;;;;;;;23.37;21.37;;;0.50;99.90;;;;;;5051364;28;20467;-72
2023/02/07 09:31:39;;;;;;;24.80;22.03;;;0.60;99.90;;;;;;5054776;28;20847;-70
2023/02/07 09:34:07;;;;;;;24.20;22.00;;;0.70;99.90;;;;;;5055568;28;20989;-72
2023/02/07 09:36:35;;;;;;;25.17;22.67;;;0.80;99.90;;;;;;5052355;28;20471;-70
2023/02/07 09:39:04;;;;;;;25.20;23.10;;;0.90;99.90;;;;;;5051663;28;20463;-73
2023/02/07 09:41:39;;;;;;;25.53;23.03;;;0.90;99.90;;;;;;5053999;28;21033;-71
2023/02/07 09:44:14;;;;;;;24.77;22.63;;;1.00;99.90;;;;;;5059683;28;20500;-73
2023/02/07 09:46:47;;;;;;;27.73;24.80;;;1.10;99.90;;;;;;5051128;28;20470;-71
2023/02/07 09:49:30;;;;;;;25.87;23.67;;;1.20;99.90;;;;;;5042651;28;20590;-74
2023/02/07 09:51:59;;;;;;;25.07;23.00;;;1.30;99.90;;;;;;5048812;28;20467;-73
2023/02/07 09:54:33;;;;;;;36.53;25.00;;;1.30;99.90;;;;;;5050566;28;21063;-72
2023/02/07 09:57:04;;;;;;;26.70;24.10;;;1.40;99.90;;;;;;5054208;28;20475;-70
2023/02/07 09:59:39;;;;;;;27.10;24.70;;;1.50;99.90;;;;;;5056705;28;20464;-70
2023/02/07 10:02:17;;;;;;;26.77;24.50;;;1.60;99.90;;;;;;5052946;28;20467;-73
2023/02/07 10:04:49;;;;;;;28.43;25.77;;;1.60;99.90;;;;;;5056010;28;20868;-73
2023/02/07 10:07:16;;;;;;;27.20;24.90;;;1.70;99.90;;;;;;5054838;28;20470;-73
2023/02/07 10:09:45;;;;;;;28.83;26.13;;;1.70;99.90;;;;;;5051367;28;20466;-73
2023/02/07 10:12:32;;;;;;;28.03;25.63;;;1.70;99.90;;;;;;5050128;28;20471;-72
2023/02/07 10:15:27;;;;;;;29.50;26.50;;;1.80;99.90;;;;;;5056157;28;20470;-70
2023/02/07 10:18:13;;;;;;;28.47;25.97;;;1.90;99.90;;;;;;5055819;28;20463;-69
2023/02/07 10:20:48;;;;;;;30.03;27.40;;;2.00;99.90;;;;;;5044926;28;20687;-70
2023/02/07 10:23:31;;;;;;;31.67;28.67;;;2.10;99.90;;;;;;5051207;28;20466;-71
2023/02/07 10:26:08;;;;;;;30.53;27.87;;;2.20;99.90;;;;;;5035579;28;20479;-70
2023/02/07 10:28:54;;;;;;;31.07;28.40;;;2.30;99.90;;;;;;5056226;28;21324;-69
2023/02/07 10:31:24;;;;;;;32.13;28.63;;;2.30;99.90;;;;;;5039289;28;20463;-70
2023/02/07 10:33:53;;;;;;;31.00;28.40;;;2.40;99.90;;;;;;5063398;28;20467;-70
2023/02/07 10:36:24;;;;;;;32.00;28.97;;;2.50;99.90;;;;;;5044455;28;20467;-71
2023/02/07 10:38:56;;;;;;;32.77;29.87;;;2.50;99.90;;;;;;5049235;28;20468;-69
2023/02/07 10:41:32;;;;;;;35.40;32.23;;;2.60;99.90;;;;;;5044715;28;20489;-71
2023/02/07 10:43:59;;;;;;;35.10;30.80;;;2.60;99.90;;;;;;5045088;28;22321;-69
2023/02/07 10:46:28;;;;;;;33.13;30.27;;;2.70;99.90;;;;;;5059967;28;20491;-70
2023/02/07 10:48:57;;;;;;;36.23;32.70;;;2.70;99.90;;;;;;5050211;28;20487;-68
2023/02/07 10:51:33;;;;;;;35.47;32.33;;;2.90;99.90;;;;;;5044381;28;20470;-69
2023/02/07 10:54:07;;;;;;;34.83;31.13;;;3.00;99.90;;;;;;5052726;28;20458;-69
2023/02/07 10:56:39;;;;;;;34.00;31.00;;;3.70;99.90;;;;;;5044879;28;20488;-68
2023/02/07 10:59:27;;;;;;;33.03;30.07;;;4.30;99.90;;;;;;5055205;28;20962;-68
2023/02/07 11:01:54;;;;;;;32.70;29.80;;;5.00;99.90;;;;;;5055777;28;20470;-69
2023/02/07 11:04:35;;;;;;;34.13;31.17;;;5.60;99.90;;;;;;5056348;28;21015;-69
2023/02/07 11:07:05;;;;;;;36.37;33.20;;;6.30;99.90;;;;;;5048828;28;20965;-69
2023/02/07 11:09:36;;;;;;;34.00;31.20;;;6.10;99.90;;;;;;5054442;28;20770;-70
2023/02/07 11:12:14;;;;;;;35.43;32.17;;;6.60;99.90;;;;;;5055625;28;20489;-68
2023/02/07 11:14:41;;;;;;;36.23;32.60;;;7.20;99.90;;;;;;5056157;28;20466;-68
2023/02/07 11:17:07;;;;;;;35.00;32.07;;;7.60;99.90;;;;;;5048536;28;20793;-69
2023/02/07 11:19:34;;;;;;;34.87;31.77;;;7.90;99.90;;;;;;5051116;28;20474;-70
2023/02/07 11:22:10;;;;;;;30.57;28.33;;;8.20;99.90;;;;;;5052185;28;20824;-69
2023/02/07 11:24:38;;;;;;;27.20;25.10;;;8.00;99.90;;;;;;5046436;28;20483;-69
2023/02/07 11:27:12;;;;;;;27.27;25.17;;;8.00;99.90;;;;;;5045055;28;20467;-69
2023/02/07 11:29:46;;;;;;;24.80;23.00;;;8.00;99.90;;;;;;5045236;28;20513;-69
2023/02/07 11:32:14;;;;;;;24.93;22.90;;;8.50;99.90;;;;;;5053807;28;20541;-69
2023/02/07 11:34:47;;;;;;;23.60;21.90;;;8.20;99.90;;;;;;5060721;28;20465;-69
2023/02/07 11:37:23;;;;;;;24.43;22.63;;;8.60;99.90;;;;;;5052727;28;20478;-69
2023/02/07 11:39:51;;;;;;;23.30;21.60;;;8.90;99.90;;;;;;5049489;28;20481;-69
2023/02/07 11:42:20;;;;;;;24.53;22.60;;;8.80;99.90;;;;;;5052672;28;20854;-69
2023/02/07 11:44:49;;;;;;;24.40;22.60;;;8.60;99.90;;;;;;5061823;28;20490;-69
2023/02/07 11:47:19;;;;;;;24.80;22.60;;;9.20;99.90;;;;;;5056638;28;20966;-69
2023/02/07 11:49:49;;;;;;;23.37;21.63;;;9.70;99.90;;;;;;5055668;28;20824;-69
2023/02/07 11:52:17;;;;;;;22.60;20.80;;;9.30;99.90;;;;;;5049605;28;20562;-70
2023/02/07 11:54:52;;;;;;;22.30;20.80;;;9.20;99.90;;;;;;5058498;28;20475;-69
2023/02/07 11:57:21;;;;;;;22.67;21.17;;;9.70;99.90;;;;;;5054526;28;20491;-70
2023/02/07 11:59:57;;;;;;;22.93;21.33;;;10.20;99.90;;;;;;5056345;28;20478;-70
2023/02/07 12:02:27;;;;;;;23.73;21.90;;;10.40;99.90;;;;;;5057541;28;20980;-70
2023/02/07 12:04:55;;;;;;;23.70;22.00;;;10.70;99.90;;;;;;5051044;28;20877;-69
2023/02/07 12:07:26;;;;;;;23.10;21.67;;;10.00;99.90;;;;;;5058295;28;20486;-70
2023/02/07 12:09:57;;;;;;;23.50;21.80;;;10.60;99.90;;;;;;5055393;28;20472;-70
2023/02/07 12:12:33;;;;;;;23.23;21.63;;;11.00;99.90;;;;;;5055143;28;20447;-70
2023/02/07 12:15:07;;;;;;;23.73;21.70;;;11.20;99.90;;;;;;5051944;28;20545;-70
2023/02/07 12:17:39;;;;;;;23.20;21.20;;;11.40;99.90;;;;;;5059652;28;20483;-70
2023/02/07 12:20:13;;;;;;;23.77;21.27;;;11.70;99.90;;;;;;5054951;28;20792;-69
2023/02/07 12:22:47;;;;;;;23.30;21.70;;;11.80;99.90;;;;;;5058047;28;20461;-69
2023/02/07 12:25:21;;;;;;;22.57;20.83;;;11.60;99.80;;;;;;5055756;28;20498;-69
2023/02/07 12:27:51;;;;;;;22.93;21.20;;;11.70;99.90;;;;;;5055588;28;20559;-70
2023/02/07 12:30:24;;;;;;;22.40;20.70;;;11.30;99.90;;;;;;5056807;28;20472;-70
2023/02/07 12:32:59;;;;;;;21.67;20.30;;;10.40;99.90;;;;;;5057262;28;20468;-70
2023/02/07 12:35:29;;;;;;;22.87;21.37;;;10.90;99.90;;;;;;5058751;28;20462;-70
2023/02/07 12:38:02;;;;;;;22.20;20.70;;;10.60;98.80;;;;;;5055075;28;20467;-69
2023/02/07 12:40:35;;;;;;;22.20;20.70;;;10.50;99.10;;;;;;5050912;28;20888;-70
2023/02/07 12:43:09;;;;;;;23.80;21.83;;;10.80;99.90;;;;;;5054326;28;21057;-69
2023/02/07 12:45:54;;;;;;;23.40;21.40;;;11.30;99.90;;;;;;5058253;28;20877;-70